Time;durP1;ratioP1;P1;durP2;ratioP2;P2;SDS_P1;SDS_P2;PMS_P1;PMS_P2;Temp;Humidity;BMP_temperature;BMP_pressure;BME280_temperature;BME280_humidity;BME280_pressure;Samples;Min_cycle;Max_cycle;Signal;HPM_P1;HPM_P2
2022/12/15 00:38:58;;;;;;;53.33;22.55;;;;;;;-2.98;100.00;94487.28;1034513;28;20026;-65
2022/12/15 00:39:28;;;;;;;45.95;21.38;;;;;;;-2.92;100.00;94491.56;1033204;28;20026;-67
2022/12/15 00:39:58;;;;;;;48.85;21.60;;;;;;;-2.91;100.00;94490.59;1030294;28;20029;-66
2022/12/15 00:40:29;;;;;;;51.97;22.40;;;;;;;-2.88;100.00;94490.16;1030288;28;20030;-67
2022/12/15 00:41:00;;;;;;;49.45;21.83;;;;;;;-2.95;100.00;94479.16;1030455;28;20412;-67
2022/12/15 00:41:30;;;;;;;52.05;22.25;;;;;;;-2.93;100.00;94488.22;1030629;28;20037;-67
2022/12/15 00:42:01;;;;;;;52.25;23.40;;;;;;;-2.91;100.00;94488.81;1034172;28;20268;-66
2022/12/15 00:42:31;;;;;;;49.67;22.60;;;;;;;-2.89;100.00;94496.28;1030681;28;20057;-66
2022/12/15 00:43:02;;;;;;;48.58;22.58;;;;;;;-2.92;100.00;94484.66;1034473;28;20088;-66
2022/12/15 00:43:33;;;;;;;50.85;23.13;;;;;;;-2.91;100.00;94493.16;1030326;28;20535;-68
2022/12/15 00:44:04;;;;;;;52.00;22.94;;;;;;;-2.88;100.00;94492.75;1027860;28;20070;-67
2022/12/15 00:44:36;;;;;;;48.55;23.25;;;;;;;-2.91;100.00;94480.31;1026522;28;20067;-67
2022/12/15 00:45:07;;;;;;;48.82;22.20;;;;;;;-2.85;100.00;94484.59;1027070;28;20051;-67
2022/12/15 00:47:15;;;;;;;51.05;22.67;;;;;;;-2.82;100.00;94484.19;1039920;28;20029;-67
2022/12/15 00:47:46;;;;;;;50.70;23.20;;;;;;;-2.82;100.00;94491.88;1034626;28;20018;-67
2022/12/15 00:48:17;;;;;;;52.55;24.63;;;;;;;-2.83;100.00;94503.16;1030357;28;20059;-68
2022/12/15 00:48:47;;;;;;;50.42;23.40;;;;;;;-2.87;100.00;94494.28;1026492;28;20273;-67
2022/12/15 00:50:56;;;;;;;45.13;20.48;;;;;;;-2.82;100.00;94506.50;1036523;28;20060;-66
2022/12/15 01:20:17;;;;;;;47.88;21.42;;;;;;;-2.99;100.00;94526.75;1042704;28;20587;-66
2022/12/15 01:20:58;;;;;;;49.42;22.58;;;;;;;-3.04;100.00;94518.91;1038600;28;20013;-67
2022/12/15 01:21:30;;;;;;;51.90;23.95;;;;;;;-2.99;100.00;94522.41;1037993;28;20630;-67
2022/12/15 01:22:00;;;;;;;54.75;25.00;;;;;;;-3.03;100.00;94530.72;1030323;28;20023;-66
2022/12/15 01:22:31;;;;;;;54.13;23.73;;;;;;;-3.00;100.00;94527.75;1032434;28;20026;-67
2022/12/15 01:23:01;;;;;;;52.92;22.70;;;;;;;-2.97;100.00;94529.91;1030484;28;20054;-66
2022/12/15 01:23:32;;;;;;;54.83;24.47;;;;;;;-2.98;100.00;94530.91;1030334;28;20129;-68
2022/12/15 01:24:03;;;;;;;54.63;24.42;;;;;;;-2.96;100.00;94527.13;1034267;28;20022;-65
2022/12/15 01:24:33;;;;;;;52.92;24.52;;;;;;;-2.91;100.00;94531.66;1034284;28;20025;-67
2022/12/15 01:25:04;;;;;;;55.97;24.05;;;;;;;-2.95;100.00;94520.19;1034443;28;20115;-66
2022/12/15 01:25:35;;;;;;;54.24;24.92;;;;;;;-2.90;100.00;94531.41;1029578;28;20026;-67
2022/12/15 01:26:05;;;;;;;52.83;23.25;;;;;;;-2.90;100.00;94535.78;1030165;28;20018;-67
2022/12/15 01:26:36;;;;;;;51.75;23.67;;;;;;;-2.92;100.00;94532.63;1023749;28;20026;-64
2022/12/15 01:27:06;;;;;;;51.35;23.58;;;;;;;-2.97;100.00;94524.78;1022498;28;20031;-68
2022/12/15 01:27:37;;;;;;;55.78;24.67;;;;;;;-3.00;100.00;94540.59;1026370;28;20421;-65
2022/12/15 01:28:07;;;;;;;57.15;23.98;;;;;;;-2.98;100.00;94538.59;1028996;28;20030;-66
2022/12/15 01:28:37;;;;;;;50.90;23.52;;;;;;;-2.96;100.00;94534.03;1030325;28;20026;-68
2022/12/15 01:29:08;;;;;;;52.67;22.92;;;;;;;-3.02;100.00;94530.50;1034396;28;20026;-68
2022/12/15 01:29:38;;;;;;;52.70;24.25;;;;;;;-2.92;100.00;94541.13;1034200;28;20040;-66
2022/12/15 01:30:10;;;;;;;54.92;22.73;;;;;;;-2.97;100.00;94529.91;1026013;28;20043;-68
2022/12/15 01:30:40;;;;;;;59.82;25.14;;;;;;;-2.91;100.00;94544.47;1026394;28;20023;-67
2022/12/15 01:31:11;;;;;;;53.38;25.27;;;;;;;-2.93;100.00;94544.66;1022242;29;20015;-68
2022/12/15 01:31:42;;;;;;;52.38;23.30;;;;;;;-2.90;100.00;94540.91;1024877;28;20027;-67
2022/12/15 01:32:13;;;;;;;56.74;25.16;;;;;;;-2.92;100.00;94546.25;1030064;28;20023;-67
2022/12/15 01:32:43;;;;;;;51.10;22.90;;;;;;;-2.89;100.00;94542.47;1026542;28;20496;-67
2022/12/15 01:33:14;;;;;;;58.90;24.13;;;;;;;-2.94;100.00;94532.06;1032788;28;20813;-66
2022/12/15 01:33:44;;;;;;;54.35;25.35;;;;;;;-2.93;100.00;94542.09;1034425;28;20037;-67
2022/12/15 01:34:16;;;;;;;51.00;23.85;;;;;;;-2.90;100.00;94551.94;1038082;28;20494;-66
2022/12/15 01:34:46;;;;;;;55.74;24.92;;;;;;;-2.97;100.00;94540.16;1034441;28;20018;-64
2022/12/15 01:35:17;;;;;;;57.08;24.30;;;;;;;-2.94;100.00;94542.31;1030035;28;20014;-66
2022/12/15 01:35:57;;;;;;;57.70;25.52;;;;;;;-2.99;100.00;94539.56;1021626;28;20146;-66
2022/12/15 01:36:28;;;;;;;54.50;24.73;;;;;;;-2.94;100.00;94540.53;1026063;28;20058;-66
2022/12/15 01:36:58;;;;;;;49.80;23.60;;;;;;;-2.87;100.00;94541.28;1026211;28;20062;-67
2022/12/15 01:37:29;;;;;;;50.10;24.15;;;;;;;-2.87;100.00;94548.19;1030540;28;20400;-66
2022/12/15 01:37:59;;;;;;;55.83;24.73;;;;;;;-2.86;100.00;94549.75;1038403;28;20025;-65
2022/12/15 01:38:30;;;;;;;52.30;23.77;;;;;;;-2.86;100.00;94544.63;1034408;28;20029;-67
2022/12/15 01:39:00;;;;;;;53.67;24.45;;;;;;;-2.83;100.00;94546.78;1038356;28;20148;-68
2022/12/15 01:40:43;;;;;;;61.65;25.45;;;;;;;-2.85;100.00;94547.00;1038471;28;20028;-67
2022/12/15 01:41:11;;;;;;;50.20;22.88;;;;;;;-2.94;100.00;94550.03;1034110;28;20096;-66
2022/12/15 01:41:41;;;;;;;52.78;22.40;;;;;;;-2.97;100.00;94547.88;1031241;28;20110;-65
2022/12/15 01:42:12;;;;;;;53.55;23.73;;;;;;;-2.92;100.00;94553.16;1030212;28;20459;-66
2022/12/15 01:42:45;;;;;;;50.74;23.78;;;;;;;-2.91;100.00;94560.66;1030503;28;20076;-66
2022/12/15 01:43:18;;;;;;;53.15;25.45;;;;;;;-3.00;100.00;94543.94;1035217;28;20029;-67
2022/12/15 01:43:48;;;;;;;60.46;25.48;;;;;;;-2.94;100.00;94557.72;1034608;28;20014;-67
2022/12/15 01:44:23;;;;;;;58.75;24.65;;;;;;;-2.95;100.00;94554.38;1026058;28;20526;-66
2022/12/15 01:44:53;;;;;;;54.32;25.56;;;;;;;-2.99;100.00;94557.53;1026080;28;20132;-68
2022/12/15 01:45:23;;;;;;;50.97;23.80;;;;;;;-3.00;100.00;94561.09;1026216;28;20432;-66
2022/12/15 01:46:01;;;;;;;52.45;24.95;;;;;;;-2.99;100.00;94554.97;1029514;28;20022;-66
2022/12/15 01:46:31;;;;;;;49.94;21.90;;;;;;;-2.98;100.00;94559.13;1025898;28;20063;-65
2022/12/15 01:47:02;;;;;;;56.17;24.80;;;;;;;-2.99;100.00;94554.97;1027216;28;20618;-66
2022/12/15 01:47:32;;;;;;;54.75;24.33;;;;;;;-2.99;100.00;94557.53;1030164;28;20030;-66
2022/12/15 01:48:04;;;;;;;52.47;23.30;;;;;;;-3.02;100.00;94553.59;1023432;28;20054;-69
2022/12/15 01:48:35;;;;;;;54.12;24.68;;;;;;;-3.01;100.00;94559.53;1026959;28;20025;-66
2022/12/15 01:49:16;;;;;;;51.85;23.38;;;;;;;-3.05;100.00;94540.41;1030705;28;20030;-65
2022/12/15 01:49:47;;;;;;;52.16;23.44;;;;;;;-3.03;100.00;94541.00;1030848;28;20109;-68
2022/12/15 01:50:17;;;;;;;58.70;24.58;;;;;;;-3.05;100.00;94537.84;1035957;28;20033;-66
2022/12/15 01:50:54;;;;;;;51.88;23.52;;;;;;;-2.97;100.00;94537.59;1034526;28;20022;-67
2022/12/15 01:51:26;;;;;;;51.78;23.35;;;;;;;-2.94;100.00;94544.88;1031032;28;20698;-69
2022/12/15 01:51:59;;;;;;;49.28;23.48;;;;;;;-3.06;100.00;94537.06;1031231;28;20055;-65
2022/12/15 01:52:30;;;;;;;54.86;23.24;;;;;;;-3.03;100.00;94541.78;1031397;28;20019;-67
2022/12/15 01:53:03;;;;;;;49.35;24.23;;;;;;;-3.01;100.00;94544.16;1026699;28;20015;-67
2022/12/15 01:53:36;;;;;;;53.53;23.80;;;;;;;-2.99;100.00;94542.16;1030342;28;20050;-66
2022/12/15 01:54:18;;;;;;;56.34;24.40;;;;;;;-3.03;100.00;94536.66;1024649;28;20078;-66
2022/12/15 01:54:52;;;;;;;49.47;22.98;;;;;;;-3.01;100.00;94544.16;1026146;28;20883;-68
2022/12/15 01:55:24;;;;;;;51.88;23.20;;;;;;;-2.98;100.00;94554.00;1030062;28;20104;-67
2022/12/15 01:55:54;;;;;;;62.62;25.28;;;;;;;-2.98;100.00;94548.88;1025301;28;20573;-69
2022/12/15 01:56:25;;;;;;;59.37;24.70;;;;;;;-2.99;100.00;94549.84;1030376;28;20018;-67
2022/12/15 01:57:05;;;;;;;55.70;25.48;;;;;;;-2.97;100.00;94553.78;1033853;28;20021;-68
2022/12/15 01:57:36;;;;;;;56.22;23.92;;;;;;;-2.96;100.00;94557.91;1034193;28;20076;-68
2022/12/15 01:58:06;;;;;;;57.70;25.23;;;;;;;-2.97;100.00;94553.78;1033991;28;20096;-68
2022/12/15 01:58:37;;;;;;;47.55;23.52;;;;;;;-2.94;100.00;94555.94;1034114;28;20041;-70
2022/12/15 01:59:08;;;;;;;54.72;25.13;;;;;;;-2.97;100.00;94558.13;1034172;28;20510;-70
2022/12/15 01:59:45;;;;;;;54.70;24.66;;;;;;;-2.93;100.00;94561.84;1034441;28;20493;-66
2022/12/15 02:00:18;;;;;;;57.70;25.54;;;;;;;-2.91;100.00;94560.66;1042392;28;20025;-67
2022/12/15 02:00:49;;;;;;;53.80;24.44;;;;;;;-3.09;100.00;94533.13;1038078;28;20029;-68
2022/12/15 02:01:19;;;;;;;55.53;25.15;;;;;;;-2.92;100.00;94560.84;1030062;28;20030;-65
2022/12/15 02:01:50;;;;;;;54.92;23.95;;;;;;;-2.94;100.00;94561.06;1026251;28;20018;-68
2022/12/15 02:02:22;;;;;;;48.72;24.05;;;;;;;-2.92;100.00;94558.28;1026057;28;20032;-66
2022/12/15 02:02:53;;;;;;;56.72;23.90;;;;;;;-2.91;100.00;94555.53;1026524;28;20101;-66
2022/12/15 02:03:23;;;;;;;52.38;24.13;;;;;;;-2.90;100.00;94558.88;1030257;28;20018;-69
2022/12/15 02:03:54;;;;;;;53.03;24.23;;;;;;;-2.97;100.00;94556.34;1030212;28;20049;-67
2022/12/15 02:04:24;;;;;;;51.08;24.33;;;;;;;-2.89;100.00;94563.78;1026119;28;20653;-68
2022/12/15 02:04:56;;;;;;;52.25;23.38;;;;;;;-3.00;100.00;94554.19;1026115;28;20077;-65
2022/12/15 02:05:27;;;;;;;56.56;24.30;;;;;;;-2.92;100.00;94559.09;1033887;28;20018;-70
2022/12/15 02:05:59;;;;;;;51.42;23.30;;;;;;;-2.92;100.00;94565.97;1029731;28;20377;-68
2022/12/15 02:06:30;;;;;;;50.96;24.54;;;;;;;-2.94;100.00;94560.28;1033896;28;20025;-66
2022/12/15 02:07:03;;;;;;;51.50;22.42;;;;;;;-2.91;100.00;94565.78;1030148;28;20411;-67
2022/12/15 02:07:33;;;;;;;52.68;24.62;;;;;;;-2.88;100.00;94560.25;1034121;28;20079;-69
2022/12/15 02:08:07;;;;;;;52.05;24.08;;;;;;;-2.90;100.00;94566.56;1034287;28;20018;-66
2022/12/15 02:08:37;;;;;;;49.72;23.18;;;;;;;-2.88;100.00;94559.47;1030200;28;20018;-67
2022/12/15 02:09:08;;;;;;;46.78;22.35;;;;;;;-2.94;100.00;94560.28;1030044;28;20006;-67
2022/12/15 02:09:38;;;;;;;53.22;22.42;;;;;;;-2.93;100.00;94561.84;1025386;28;20199;-67
2022/12/15 02:10:09;;;;;;;46.05;22.90;;;;;;;-2.90;100.00;94564.00;1026223;28;20408;-64
2022/12/15 02:11:07;;;;;;;53.55;23.05;;;;;;;-2.94;100.00;94567.97;1022145;29;20035;-67
2022/12/15 02:11:43;;;;;;;50.08;21.02;;;;;;;-2.96;100.00;94564.81;1025957;28;20102;-67
2022/12/15 02:12:14;;;;;;;45.42;21.54;;;;;;;-2.94;100.00;94565.41;1031455;28;20053;-66
2022/12/15 02:13:07;;;;;;;51.85;22.88;;;;;;;-2.97;100.00;94560.69;1038305;28;20021;-67
2022/12/15 02:13:51;;;;;;;45.45;22.08;;;;;;;-3.01;100.00;94569.81;1038325;28;20014;-66
2022/12/15 02:14:47;;;;;;;49.20;21.72;;;;;;;-3.02;100.00;94571.56;1038617;28;20021;-66
2022/12/15 02:15:53;;;;;;;47.25;21.48;;;;;;;-2.97;100.00;94581.22;1035633;28;20108;-66
2022/12/15 02:17:05;;;;;;;45.92;20.92;;;;;;;-2.96;100.00;94578.44;1023576;28;20031;-67
2022/12/15 02:17:50;;;;;;;54.75;22.73;;;;;;;-3.00;100.00;94579.06;1037875;28;20120;-64
2022/12/15 02:18:23;;;;;;;49.17;21.02;;;;;;;-3.02;100.00;94583.59;1045773;28;20035;-66
2022/12/15 02:19:04;;;;;;;48.74;22.12;;;;;;;-3.01;100.00;94586.00;1047319;28;20040;-69
2022/12/15 02:19:58;;;;;;;50.88;22.63;;;;;;;-3.01;100.00;94587.78;1038437;28;20028;-69
2022/12/15 02:20:35;;;;;;;46.70;21.35;;;;;;;-3.00;100.00;94592.69;1034626;28;20467;-69
2022/12/15 02:21:11;;;;;;;58.05;22.45;;;;;;;-3.01;100.00;94578.28;1034830;28;20454;-66
2022/12/15 02:22:03;;;;;;;52.30;22.63;;;;;;;-3.02;100.00;94596.44;1042728;28;20534;-66
2022/12/15 02:23:04;;;;;;;46.90;23.00;;;;;;;-3.06;100.00;94592.72;1043490;28;20013;-68
2022/12/15 02:23:56;;;;;;;48.33;21.92;;;;;;;-3.09;100.00;94597.25;1035135;28;20526;-66
2022/12/15 02:24:37;;;;;;;50.72;23.27;;;;;;;-3.08;100.00;94596.28;1033738;28;20018;-67
2022/12/15 02:25:45;;;;;;;49.70;22.52;;;;;;;-3.12;100.00;94600.25;1026806;28;20471;-67
2022/12/15 02:26:37;;;;;;;49.40;22.08;;;;;;;-3.11;100.00;94601.03;1016311;29;20502;-69
2022/12/15 02:27:46;;;;;;;52.35;22.50;;;;;;;-3.12;100.00;94600.25;1032929;28;20028;-66
2022/12/15 02:28:58;;;;;;;51.80;21.83;;;;;;;-3.08;100.00;94595.50;1027415;28;20045;-67
2022/12/15 02:30:06;;;;;;;47.40;21.23;;;;;;;-3.10;100.00;94595.69;1029980;28;20073;-66
2022/12/15 02:31:48;;;;;;;50.67;20.67;;;;;;;-3.19;100.00;94588.44;1045405;28;20697;-67
2022/12/15 02:32:05;;;;;;;;;;;;;;;-3.15;100.00;94595.53;1031233;28;20052;-66
2022/12/15 02:32:59;;;;;;;51.70;21.30;;;;;;;-3.18;100.00;94595.94;1021933;29;19910;-67
2022/12/15 02:33:30;;;;;;;56.35;22.38;;;;;;;-3.23;100.00;94588.06;1036584;28;20117;-67
2022/12/15 02:34:26;;;;;;;48.95;22.63;;;;;;;-3.18;100.00;94597.72;1029892;28;20054;-67
2022/12/15 02:35:08;;;;;;;49.38;21.95;;;;;;;-3.17;100.00;94596.72;1024201;28;20059;-67
2022/12/15 02:35:50;;;;;;;54.17;22.55;;;;;;;-3.18;100.00;94600.28;1024035;28;20555;-65
2022/12/15 02:36:25;;;;;;;61.55;23.83;;;;;;;-3.17;100.00;94597.50;1029960;28;20066;-66
2022/12/15 02:37:03;;;;;;;55.45;23.95;;;;;;;-3.18;100.00;94595.94;1033345;28;20053;-66
2022/12/15 02:37:35;;;;;;;56.33;24.73;;;;;;;-3.27;100.00;94597.16;1034683;28;20021;-65
2022/12/15 02:38:07;;;;;;;51.65;23.45;;;;;;;-3.24;100.00;94591.63;1030650;28;20069;-67
2022/12/15 02:38:40;;;;;;;55.47;24.38;;;;;;;-3.23;100.00;94597.53;1030488;28;20699;-68
2022/12/15 02:39:11;;;;;;;53.78;24.02;;;;;;;-3.22;100.00;94599.09;1026571;28;20022;-69
2022/12/15 02:39:41;;;;;;;61.13;25.10;;;;;;;-3.23;100.00;94597.53;1022357;29;20024;-65
2022/12/15 02:40:11;;;;;;;48.53;24.67;;;;;;;-3.21;100.00;94598.91;1026856;28;20078;-67
2022/12/15 02:40:42;;;;;;;55.80;25.10;;;;;;;-3.27;100.00;94604.84;1030638;28;20026;-66
2022/12/15 02:41:50;;;;;;;53.93;24.60;;;;;;;-3.26;100.00;94603.84;1034854;28;20022;-68
2022/12/15 02:42:20;;;;;;;54.42;22.15;;;;;;;-3.23;100.00;94600.88;1034146;28;20128;-68
2022/12/15 02:42:52;;;;;;;53.47;24.43;;;;;;;-3.30;100.00;94594.22;1030325;28;20030;-66
2022/12/15 02:43:22;;;;;;;50.75;22.67;;;;;;;-3.30;100.00;94596.78;1024222;28;20035;-68
2022/12/15 02:43:53;;;;;;;55.00;23.97;;;;;;;-3.24;100.00;94608.81;1029293;28;20030;-66
2022/12/15 02:44:54;;;;;;;57.83;24.40;;;;;;;-3.21;100.00;94610.97;1026457;28;20023;-65
2022/12/15 02:46:04;;;;;;;48.45;21.83;;;;;;;-3.24;100.00;94607.03;1018566;28;20657;-69
2022/12/15 02:46:48;;;;;;;52.55;22.48;;;;;;;-3.26;100.00;94606.44;1026663;28;20034;-70
2022/12/15 02:47:44;;;;;;;67.25;24.58;;;;;;;-3.27;100.00;94609.22;1035618;28;20108;-70
2022/12/15 02:48:38;;;;;;;59.92;23.83;;;;;;;-3.28;100.00;94613.56;1036420;28;20033;-71
2022/12/15 02:49:14;;;;;;;51.40;22.17;;;;;;;-3.23;100.00;94615.50;1038901;28;20037;-67
2022/12/15 02:49:50;;;;;;;54.22;22.75;;;;;;;-3.26;100.00;94616.69;1040089;28;20470;-70
2022/12/15 02:50:28;;;;;;;57.53;24.08;;;;;;;-3.30;100.00;94602.69;1043514;28;20028;-67
2022/12/15 02:51:08;;;;;;;56.88;23.33;;;;;;;-3.24;100.00;94608.81;1035271;28;20037;-66
2022/12/15 02:52:02;;;;;;;57.42;24.67;;;;;;;-3.26;100.00;94614.13;1035308;28;20145;-66
2022/12/15 02:53:04;;;;;;;55.17;22.83;;;;;;;-3.25;100.00;94620.03;1028394;28;20033;-68
2022/12/15 02:53:41;;;;;;;50.60;22.20;;;;;;;-3.30;100.00;94618.09;1031368;28;20092;-69
2022/12/15 02:54:19;;;;;;;53.85;22.83;;;;;;;-3.25;100.00;94618.28;1027996;28;20045;-66
2022/12/15 02:55:15;;;;;;;60.38;23.48;;;;;;;-3.26;100.00;94616.69;1027354;28;20031;-66
2022/12/15 02:56:11;;;;;;;59.28;23.38;;;;;;;-3.28;100.00;94613.56;1027538;28;20031;-66
2022/12/15 02:57:11;;;;;;;53.75;24.05;;;;;;;-3.28;100.00;94617.91;1034219;28;20064;-66
2022/12/15 02:57:47;;;;;;;51.58;22.67;;;;;;;-3.29;100.00;94611.97;1029297;28;20794;-67
2022/12/15 02:58:38;;;;;;;54.03;23.17;;;;;;;-3.31;100.00;94616.53;1036781;28;20056;-66
2022/12/15 02:59:19;;;;;;;56.90;24.60;;;;;;;-3.41;100.00;94611.03;1035924;28;20064;-70
2022/12/15 02:59:59;;;;;;;57.28;23.42;;;;;;;-3.28;100.00;94618.69;1043638;28;20035;-68
2022/12/15 03:00:30;;;;;;;54.42;23.77;;;;;;;-3.30;100.00;94618.09;1032289;28;20609;-66
2022/12/15 03:01:09;;;;;;;52.83;23.10;;;;;;;-3.27;100.00;94616.91;1027134;28;20035;-67
2022/12/15 03:01:45;;;;;;;56.80;24.25;;;;;;;-3.26;100.00;94615.91;1023225;29;20330;-68
2022/12/15 03:02:16;;;;;;;62.20;25.38;;;;;;;-3.29;100.00;94608.63;1023186;29;20023;-67
2022/12/15 03:02:48;;;;;;;59.67;25.47;;;;;;;-3.24;100.00;94616.50;1025762;28;20868;-67
2022/12/15 03:03:19;;;;;;;55.63;24.45;;;;;;;-3.25;100.00;94615.72;1027356;28;20019;-69
2022/12/15 03:03:50;;;;;;;57.27;24.10;;;;;;;-3.27;100.00;94607.44;1027237;28;20539;-67
2022/12/15 03:04:20;;;;;;;55.53;24.87;;;;;;;-3.29;100.00;94619.66;1031102;28;20037;-67
2022/12/15 03:04:51;;;;;;;55.43;24.67;;;;;;;-3.28;100.00;94615.34;1031521;28;20030;-67
2022/12/15 03:05:22;;;;;;;58.58;25.13;;;;;;;-3.27;100.00;94617.69;1027266;28;20069;-68
2022/12/15 03:05:53;;;;;;;57.07;24.63;;;;;;;-3.25;100.00;94615.72;1026682;28;20103;-67
2022/12/15 03:06:24;;;;;;;59.86;25.20;;;;;;;-3.27;100.00;94611.78;1027212;28;20037;-68
2022/12/15 03:06:55;;;;;;;58.87;25.23;;;;;;;-3.30;100.00;94610.41;1035588;28;20065;-68
2022/12/15 03:07:30;;;;;;;53.72;24.95;;;;;;;-3.23;100.00;94620.63;1031306;28;20040;-69
2022/12/15 03:08:01;;;;;;;56.92;24.65;;;;;;;-3.23;100.00;94621.41;1031061;28;20065;-68
2022/12/15 03:08:31;;;;;;;58.20;24.37;;;;;;;-3.23;100.00;94618.84;1032319;28;20049;-66
2022/12/15 03:09:02;;;;;;;53.57;25.03;;;;;;;-3.21;100.00;94622.00;1033016;28;20041;-67
2022/12/15 03:09:33;;;;;;;59.38;24.35;;;;;;;-3.22;100.00;94625.56;1039294;28;20095;-66
2022/12/15 03:10:04;;;;;;;55.30;25.77;;;;;;;-3.18;100.00;94615.69;1039430;28;20025;-68
2022/12/15 03:10:35;;;;;;;56.85;25.40;;;;;;;-3.17;100.00;94630.84;1031207;28;20077;-66
2022/12/15 03:11:05;;;;;;;55.43;26.00;;;;;;;-3.19;100.00;94620.00;1031191;28;20038;-65
2022/12/15 03:11:35;;;;;;;59.10;24.87;;;;;;;-3.23;100.00;94618.84;1031733;28;20432;-68
2022/12/15 03:12:06;;;;;;;54.63;25.23;;;;;;;-3.21;100.00;94626.34;1031296;28;20019;-66
2022/12/15 03:12:37;;;;;;;53.20;24.20;;;;;;;-3.18;100.00;94616.47;1027220;28;20094;-66
2022/12/15 03:13:08;;;;;;;54.67;23.90;;;;;;;-3.14;100.00;94622.75;1027184;28;20134;-68
2022/12/15 03:13:38;;;;;;;58.78;25.25;;;;;;;-3.13;100.00;94624.31;1027209;28;20274;-67
2022/12/15 03:14:08;;;;;;;52.90;24.27;;;;;;;-3.16;100.00;94622.16;1027535;28;20019;-66
2022/12/15 03:14:39;;;;;;;59.00;25.10;;;;;;;-3.14;100.00;94627.88;1029126;28;20022;-67
2022/12/15 03:15:10;;;;;;;49.53;23.60;;;;;;;-3.09;100.00;94630.59;1035449;28;20435;-68
2022/12/15 03:15:43;;;;;;;53.33;24.50;;;;;;;-3.06;100.00;94628.63;1034776;28;20030;-66
2022/12/15 03:16:14;;;;;;;55.08;24.74;;;;;;;-3.13;100.00;94623.53;1032237;28;20077;-66
2022/12/15 03:16:44;;;;;;;55.45;24.50;;;;;;;-3.13;100.00;94620.97;1031831;28;20097;-67
2022/12/15 03:17:15;;;;;;;57.67;25.73;;;;;;;-3.09;100.00;94635.75;1031323;28;20018;-67
2022/12/15 03:17:45;;;;;;;62.23;24.93;;;;;;;-3.09;100.00;94635.75;1031827;28;20722;-67
2022/12/15 03:18:16;;;;;;;52.03;24.17;;;;;;;-3.09;100.00;94635.75;1035410;28;20442;-68
2022/12/15 03:18:46;;;;;;;51.03;24.13;;;;;;;-3.04;100.00;94634.38;1039503;28;20022;-66
2022/12/15 03:19:17;;;;;;;53.60;25.55;;;;;;;-3.04;100.00;94635.16;1043578;28;20014;-64
2022/12/15 03:19:47;;;;;;;56.20;23.27;;;;;;;-3.12;100.00;94635.38;1035266;28;20061;-67
2022/12/15 03:20:18;;;;;;;54.05;23.88;;;;;;;-3.16;100.00;94637.56;1030977;28;20030;-68
2022/12/15 03:20:48;;;;;;;55.83;24.10;;;;;;;-3.18;100.00;94637.00;1031251;28;20078;-68
2022/12/15 03:21:19;;;;;;;50.88;23.55;;;;;;;-3.14;100.00;94637.38;1031389;28;20046;-66
2022/12/15 03:21:49;;;;;;;56.13;25.45;;;;;;;-3.10;100.00;94643.66;1035470;28;20079;-66
2022/12/15 03:22:19;;;;;;;52.63;24.63;;;;;;;-3.17;100.00;94633.44;1039292;28;20029;-68
2022/12/15 03:22:50;;;;;;;55.10;24.57;;;;;;;-3.14;100.00;94638.16;1031222;28;20069;-68
2022/12/15 03:23:21;;;;;;;53.45;24.75;;;;;;;-3.08;100.00;94632.19;1031103;28;20022;-67
2022/12/15 03:23:52;;;;;;;60.10;24.66;;;;;;;-3.04;100.00;94637.72;1035485;28;20687;-68
2022/12/15 03:24:22;;;;;;;52.08;23.38;;;;;;;-3.09;100.00;94638.31;1027435;28;20023;-66
2022/12/15 03:24:53;;;;;;;63.78;24.98;;;;;;;-3.08;100.00;94636.56;1031119;28;20423;-66
2022/12/15 03:25:23;;;;;;;56.50;25.17;;;;;;;-3.11;100.00;94627.47;1031439;28;20026;-66
2022/12/15 03:25:54;;;;;;;59.92;25.40;;;;;;;-3.03;100.00;94638.50;1026814;28;20865;-68
2022/12/15 03:26:25;;;;;;;56.22;25.05;;;;;;;-3.03;100.00;94643.63;1027061;28;20034;-67
2022/12/15 03:26:55;;;;;;;51.85;23.23;;;;;;;-3.03;100.00;94644.41;1027420;28;20022;-67
2022/12/15 03:27:26;;;;;;;55.13;23.92;;;;;;;-3.06;100.00;94639.69;1025722;28;20058;-71
2022/12/15 03:27:56;;;;;;;49.08;23.20;;;;;;;-3.06;100.00;94638.91;1029869;28;20156;-66
2022/12/15 03:28:27;;;;;;;55.17;24.08;;;;;;;-3.12;100.00;94633.59;1046829;28;20740;-65
2022/12/15 03:28:58;;;;;;;54.18;23.78;;;;;;;-3.01;100.00;94641.66;1044749;28;20112;-69
2022/12/15 03:29:28;;;;;;;53.28;23.73;;;;;;;-3.04;100.00;94642.84;1044839;28;20461;-68
2022/12/15 03:29:59;;;;;;;49.42;23.63;;;;;;;-3.05;100.00;94640.47;1044091;28;20080;-66
2022/12/15 03:30:29;;;;;;;57.00;23.63;;;;;;;-3.10;100.00;94639.31;1040571;28;20029;-68
2022/12/15 03:31:00;;;;;;;55.15;25.60;;;;;;;-3.06;100.00;94637.13;1039960;28;20450;-68
2022/12/15 03:31:30;;;;;;;56.80;23.77;;;;;;;-3.09;100.00;94640.88;1039685;28;20075;-66
2022/12/15 03:32:01;;;;;;;54.00;24.58;;;;;;;-3.04;100.00;94639.50;1040192;28;20013;-67
2022/12/15 03:32:31;;;;;;;51.78;24.08;;;;;;;-3.09;100.00;94635.75;1043788;28;20029;-68
2022/12/15 03:33:01;;;;;;;56.35;24.75;;;;;;;-3.10;100.00;94639.31;1039605;28;20041;-68
2022/12/15 03:33:32;;;;;;;54.20;24.27;;;;;;;-3.13;100.00;94642.28;1039567;28;20036;-68
2022/12/15 03:34:03;;;;;;;49.15;23.70;;;;;;;-3.06;100.00;94649.16;1031043;28;20025;-68
2022/12/15 03:34:33;;;;;;;53.10;25.75;;;;;;;-3.09;100.00;94640.09;1031441;28;20031;-68
2022/12/15 03:35:04;;;;;;;53.17;24.43;;;;;;;-3.02;100.00;94653.66;1030797;28;20014;-66
2022/12/15 03:35:34;;;;;;;50.60;23.33;;;;;;;-3.02;100.00;94655.44;1026824;28;20124;-66
2022/12/15 03:36:08;;;;;;;52.80;22.92;;;;;;;-3.01;100.00;94652.69;1034845;28;20257;-68
2022/12/15 03:36:38;;;;;;;51.97;24.80;;;;;;;-3.08;100.00;94652.72;1039400;28;20149;-67
2022/12/15 03:37:09;;;;;;;52.13;23.55;;;;;;;-3.08;100.00;94657.84;1039394;28;20017;-67
2022/12/15 03:37:40;;;;;;;53.15;23.20;;;;;;;-3.06;100.00;94660.22;1035267;28;20022;-66
2022/12/15 03:38:10;;;;;;;56.40;23.45;;;;;;;-3.05;100.00;94663.56;1030903;28;20495;-69
2022/12/15 03:38:40;;;;;;;52.45;23.38;;;;;;;-3.04;100.00;94657.44;1030721;28;20447;-68
2022/12/15 03:39:11;;;;;;;49.65;23.30;;;;;;;-3.11;100.00;94647.22;1035065;28;20080;-68
2022/12/15 03:39:41;;;;;;;55.13;25.03;;;;;;;-3.09;100.00;94651.13;1034988;28;20561;-68
2022/12/15 03:40:12;;;;;;;52.63;24.23;;;;;;;-3.14;100.00;94647.63;1037716;28;20052;-66
2022/12/15 03:40:43;;;;;;;53.20;24.33;;;;;;;-3.12;100.00;94651.56;1030871;28;20037;-68
2022/12/15 03:41:19;;;;;;;54.06;25.10;;;;;;;-3.10;100.00;94646.22;1034014;28;20057;-70
2022/12/15 03:41:49;;;;;;;49.74;23.66;;;;;;;-3.15;100.00;94639.16;1032945;28;20018;-67
2022/12/15 03:42:47;;;;;;;49.20;23.67;;;;;;;-3.09;100.00;94647.78;1035615;28;20018;-66
2022/12/15 03:43:10;;;;;;;56.67;24.38;;;;;;;-3.08;100.00;94650.16;1027060;28;20030;-69
2022/12/15 03:43:41;;;;;;;54.47;23.70;;;;;;;-3.12;100.00;94651.56;1029506;28;20500;-66
2022/12/15 03:44:11;;;;;;;50.77;23.97;;;;;;;-3.20;100.00;94649.22;1029502;28;20015;-67
2022/12/15 03:44:42;;;;;;;51.00;23.43;;;;;;;-3.15;100.00;94651.97;1022732;28;20016;-67
2022/12/15 03:45:12;;;;;;;53.53;24.97;;;;;;;-3.16;100.00;94647.03;1026716;28;20026;-69
2022/12/15 03:45:43;;;;;;;48.83;23.87;;;;;;;-3.19;100.00;94648.22;1022037;28;20067;-67
2022/12/15 03:46:13;;;;;;;57.17;23.27;;;;;;;-3.13;100.00;94662.81;1026784;28;20081;-67
2022/12/15 03:46:44;;;;;;;50.40;25.15;;;;;;;-3.13;100.00;94660.22;1034784;28;20533;-66
2022/12/15 03:47:14;;;;;;;54.22;24.02;;;;;;;-3.09;100.00;94658.81;1034745;28;20022;-70
2022/12/15 03:47:45;;;;;;;49.58;24.77;;;;;;;-3.08;100.00;94662.22;1039129;28;20021;-67
2022/12/15 03:48:15;;;;;;;49.97;23.77;;;;;;;-3.09;100.00;94663.19;1034992;28;20018;-68
2022/12/15 03:48:46;;;;;;;49.33;23.38;;;;;;;-3.12;100.00;94658.44;1030843;28;20031;-67
2022/12/15 03:49:16;;;;;;;46.63;22.77;;;;;;;-3.11;100.00;94658.25;1030219;28;20022;-67
2022/12/15 03:49:47;;;;;;;51.10;24.33;;;;;;;-3.14;100.00;94658.66;1027099;28;20535;-67
2022/12/15 03:50:19;;;;;;;52.38;23.35;;;;;;;-3.11;100.00;94648.00;1030781;28;20014;-65
2022/12/15 03:50:49;;;;;;;53.22;23.32;;;;;;;-3.13;100.00;94659.44;1034898;28;20475;-67